Time;durP1;ratioP1;P1;durP2;ratioP2;P2;SDS_P1;SDS_P2;PMS_P1;PMS_P2;Temp;Humidity;BMP_temperature;BMP_pressure;BME280_temperature;BME280_humidity;BME280_pressure;Samples;Min_cycle;Max_cycle;Signal;HPM_P1;HPM_P2
2023/10/12 00:09:03;;;;;;;4.15;2.85;;;;;;;19.95;100.00;100789.03;20869228;28;20057;-63
2023/10/12 00:19:11;;;;;;;3.40;2.70;;;;;;;19.91;100.00;100795.75;20872286;28;20103;-63
2023/10/12 00:29:13;;;;;;;4.28;2.58;;;;;;;19.86;100.00;100775.38;20872779;28;20412;-63
2023/10/12 00:39:15;;;;;;;4.60;2.30;;;;;;;19.83;100.00;100769.44;20870715;28;20099;-63
2023/10/12 00:49:19;;;;;;;2.90;2.00;;;;;;;19.78;100.00;100767.19;20853056;28;20053;-63
2023/10/12 00:59:22;;;;;;;2.87;2.03;;;;;;;19.75;100.00;100770.19;20853278;28;20492;-63
2023/10/12 01:09:26;;;;;;;2.28;1.70;;;;;;;19.67;99.88;100775.50;20883935;28;20057;-63
2023/10/12 01:19:31;;;;;;;2.92;1.60;;;;;;;19.68;99.71;100769.97;20886644;28;20051;-63
2023/10/12 01:29:35;;;;;;;2.80;1.60;;;;;;;19.66;99.42;100792.72;20884539;28;20051;-63
2023/10/12 01:39:50;;;;;;;2.27;1.47;;;;;;;19.63;99.13;100817.31;20814228;28;20061;-63
2023/10/12 01:49:52;;;;;;;2.35;1.70;;;;;;;19.59;98.94;100826.72;20801580;28;20057;-63
2023/10/12 01:59:54;;;;;;;2.63;1.63;;;;;;;19.56;98.68;100815.22;20800454;28;20528;-63
2023/10/12 02:09:58;;;;;;;1.63;1.15;;;;;;;19.54;98.37;100830.72;20782375;28;20375;-63
2023/10/12 02:19:59;;;;;;;1.70;1.15;;;;;;;19.50;98.16;100829.34;20798034;28;20414;-63
2023/10/12 02:30:02;;;;;;;3.00;1.30;;;;;;;19.49;97.83;100840.25;20798282;28;20460;-63
2023/10/12 02:40:12;;;;;;;3.20;1.38;;;;;;;19.46;97.39;100851.38;20829054;28;20061;-63
2023/10/12 02:50:20;;;;;;;2.30;1.20;;;;;;;19.44;97.20;100845.25;20879327;28;20045;-63
2023/10/12 03:11:31;;;;;;;2.28;1.08;;;;;;;19.39;96.69;100843.00;20877749;28;20056;-63
2023/10/12 03:21:13;;;;;;;2.20;1.13;;;;;;;19.37;96.21;100850.38;20870792;28;20076;-63
2023/10/12 03:31:15;;;;;;;3.28;1.33;;;;;;;19.34;96.16;100858.78;20875622;28;20456;-63
2023/10/12 03:41:46;;;;;;;1.60;0.88;;;;;;;19.33;95.86;100875.97;20874475;28;20106;-63
2023/10/12 03:51:42;;;;;;;2.37;0.90;;;;;;;19.31;95.67;100867.19;20874162;28;20512;-63
2023/10/12 04:01:44;;;;;;;2.03;0.98;;;;;;;19.27;95.36;100891.78;20873570;28;20056;-63
2023/10/12 04:11:48;;;;;;;2.67;1.00;;;;;;;19.25;95.24;100890.22;20855999;28;20068;-63
2023/10/12 04:22:23;;;;;;;1.70;0.90;;;;;;;19.22;94.88;100891.34;20796456;28;20061;-63
2023/10/12 04:32:36;;;;;;;2.03;0.93;;;;;;;19.21;94.39;100900.44;20801760;28;20394;-63
2023/10/12 04:42:44;;;;;;;2.13;0.90;;;;;;;19.21;94.31;100915.78;20805159;28;20053;-63
2023/10/12 04:53:06;;;;;;;4.65;2.30;;;;;;;19.20;94.25;100924.88;20810851;28;20041;-63
2023/10/12 05:03:25;;;;;;;1.75;0.90;;;;;;;19.18;94.05;100943.91;20832452;28;20202;-63
2023/10/12 05:13:28;;;;;;;1.92;0.80;;;;;;;19.16;93.82;100951.31;20847466;28;20124;-62
2023/10/12 05:23:30;;;;;;;2.70;0.80;;;;;;;19.19;94.02;100953.72;20868533;28;20071;-62
2023/10/12 05:43:39;;;;;;;2.83;0.90;;;;;;;19.22;93.81;100949.88;20830649;28;20049;-61
2023/10/12 05:53:41;;;;;;;1.48;0.70;;;;;;;19.37;93.64;100980.84;20833266;28;20295;-61
2023/10/12 06:03:46;;;;;;;2.88;1.13;;;;;;;19.33;94.38;100978.56;20830585;28;20057;-60
2023/10/12 06:13:51;;;;;;;4.82;1.02;;;;;;;19.26;96.46;100989.09;20806612;28;20070;-59
2023/10/12 06:23:53;;;;;;;;;;;;;;;19.27;96.22;100993.50;20809192;28;20053;-60
2023/10/12 06:34:01;;;;;;;4.68;1.33;;;;;;;19.26;96.78;101000.72;20821998;28;20406;-60
2023/10/12 06:54:39;;;;;;;5.95;1.10;;;;;;;19.38;96.19;101030.25;20812945;28;20076;-60
2023/10/12 07:04:53;;;;;;;3.03;0.90;;;;;;;19.42;95.87;101048.75;20847457;28;20585;-60
2023/10/12 07:14:55;;;;;;;4.47;1.10;;;;;;;19.31;96.10;101066.94;20803242;28;20049;-59
2023/10/12 07:24:57;;;;;;;2.97;0.90;;;;;;;19.26;95.76;101070.06;20790148;28;20132;-59
2023/10/12 07:35:05;;;;;;;4.72;1.42;;;;;;;19.44;95.86;101077.44;20797315;28;20052;-59
2023/10/12 07:45:09;;;;;;;5.10;0.95;;;;;;;19.91;93.77;101074.88;20790162;28;20414;-59
2023/10/12 07:55:12;;;;;;;1.73;0.63;;;;;;;20.38;92.03;101082.13;20803061;28;20045;-60
2023/10/12 08:15:20;;;;;;;1.97;1.03;;;;;;;20.64;89.81;101073.31;20829734;28;20065;-59
2023/10/12 08:25:27;;;;;;;5.30;0.88;;;;;;;20.58;90.68;101093.72;20786015;28;20045;-59
2023/10/12 08:35:32;;;;;;;4.45;0.80;;;;;;;20.59;90.65;101089.16;20826688;28;20045;-60
2023/10/12 08:45:35;;;;;;;4.63;1.02;;;;;;;20.60;90.61;101098.97;20799304;28;20049;-60
2023/10/12 08:55:38;;;;;;;1.92;0.80;;;;;;;20.59;90.36;101099.97;20768015;28;20045;-61
2023/10/12 09:05:40;;;;;;;2.42;0.80;;;;;;;20.58;89.67;101098.25;20787852;28;20112;-60
2023/10/12 09:15:45;;;;;;;1.73;0.80;;;;;;;20.60;89.30;101101.66;20789043;28;20058;-60
2023/10/12 09:26:13;;;;;;;2.58;0.80;;;;;;;20.58;89.04;101106.38;20803352;28;20053;-59
2023/10/12 09:36:19;;;;;;;3.22;0.70;;;;;;;20.62;88.89;101120.47;20797796;28;20132;-59
2023/10/12 09:46:24;;;;;;;1.58;0.73;;;;;;;20.64;88.49;101124.72;20808322;28;20128;-59
2023/10/12 09:56:44;;;;;;;2.42;0.98;;;;;;;20.60;87.81;101128.72;20798447;28;20050;-59
2023/10/12 10:06:51;;;;;;;6.38;1.52;;;;;;;20.56;88.16;101122.78;20818737;28;20037;-60
2023/10/12 10:16:59;;;;;;;2.95;1.08;;;;;;;20.58;87.35;101126.19;20828025;28;20048;-60
2023/10/12 10:27:11;;;;;;;4.63;0.93;;;;;;;20.60;86.91;101131.44;20819011;28;20132;-59
2023/10/12 10:37:37;;;;;;;7.75;1.38;;;;;;;20.60;86.49;101136.84;20810311;28;20421;-59
2023/10/12 10:47:49;;;;;;;3.90;1.00;;;;;;;20.57;86.37;101134.44;20781281;28;20128;-60
2023/10/12 10:58:14;;;;;;;1.73;0.70;;;;;;;20.54;86.30;101123.91;20826285;28;20049;-60
2023/10/12 11:08:26;;;;;;;3.13;0.98;;;;;;;20.59;86.09;101143.25;20819199;28;20052;-61
2023/10/12 11:18:29;;;;;;;2.38;0.75;;;;;;;20.56;85.78;101136.28;20812647;28;20124;-61
2023/10/12 11:28:33;;;;;;;2.47;0.90;;;;;;;20.54;85.58;101129.31;20835536;28;20052;-61
2023/10/12 11:38:35;;;;;;;1.70;0.60;;;;;;;20.52;85.21;101118.63;20837466;28;20118;-61
2023/10/12 11:48:38;;;;;;;1.75;0.77;;;;;;;20.52;84.82;101112.38;20837738;28;20053;-61
2023/10/12 11:58:41;;;;;;;3.15;0.80;;;;;;;20.49;84.40;101107.28;20817688;28;20049;-61
2023/10/12 12:08:42;;;;;;;2.47;1.13;;;;;;;20.42;83.81;101109.72;20874032;28;20060;-61
2023/10/12 12:18:44;;;;;;;3.03;1.02;;;;;;;20.37;83.82;101101.19;20848480;28;20068;-61
2023/10/12 12:28:50;;;;;;;2.63;1.02;;;;;;;20.27;85.07;101106.63;20817547;28;20045;-60
2023/10/12 12:38:57;;;;;;;2.65;0.70;;;;;;;20.24;84.40;101082.59;20809736;28;20079;-60
2023/10/12 12:48:59;;;;;;;2.17;0.77;;;;;;;20.26;83.44;101073.34;20810330;28;20057;-60
2023/10/12 12:59:00;;;;;;;1.88;0.70;;;;;;;20.27;82.87;101077.75;20833949;28;20151;-60
2023/10/12 13:09:02;;;;;;;1.30;0.60;;;;;;;20.26;82.73;101064.38;20794035;28;20496;-60
2023/10/12 13:19:08;;;;;;;1.80;0.82;;;;;;;20.23;82.54;101072.78;20814259;28;20508;-60
2023/10/12 13:29:13;;;;;;;2.35;0.77;;;;;;;20.18;82.74;101056.16;20813017;28;20046;-59
2023/10/12 13:39:15;;;;;;;1.08;0.57;;;;;;;20.17;82.68;101058.03;20802204;28;20056;-61
2023/10/12 13:49:20;;;;;;;1.55;0.70;;;;;;;20.20;82.53;101038.81;20815527;28;20600;-61
2023/10/12 13:59:24;;;;;;;1.75;0.85;;;;;;;20.18;82.18;101034.53;20808110;28;20871;-60
2023/10/12 14:09:27;;;;;;;2.83;0.90;;;;;;;20.18;82.50;101037.25;20788402;28;20054;-62
2023/10/12 14:19:29;;;;;;;2.70;0.80;;;;;;;20.11;82.85;101043.25;20808653;28;20053;-58
2023/10/12 14:29:31;;;;;;;2.72;0.80;;;;;;;20.08;83.55;101048.06;20819959;28;20056;-59
2023/10/12 14:39:34;;;;;;;2.97;1.10;;;;;;;20.05;83.55;101022.22;20823716;28;20079;-58
2023/10/12 14:49:36;;;;;;;4.18;1.00;;;;;;;20.01;83.62;101012.69;20802963;28;20131;-58
2023/10/12 14:59:38;;;;;;;3.92;1.10;;;;;;;19.99;83.82;101006.59;20795302;28;20057;-58
2023/10/12 15:09:48;;;;;;;2.97;1.00;;;;;;;19.99;84.38;101001.19;20799650;28;20056;-58
2023/10/12 15:19:50;;;;;;;2.97;1.33;;;;;;;20.00;84.96;101000.19;20834672;28;20115;-59
2023/10/12 15:29:52;;;;;;;4.60;1.33;;;;;;;20.02;85.06;100990.09;20804063;28;20045;-58
2023/10/12 15:39:54;;;;;;;5.38;1.52;;;;;;;20.02;85.35;100984.69;20818648;28;20061;-58
2023/10/12 15:49:56;;;;;;;2.22;1.00;;;;;;;20.00;85.42;100968.59;20800635;28;20553;-58
2023/10/12 15:59:59;;;;;;;6.07;0.98;;;;;;;19.78;85.50;100925.72;20812809;28;20041;-58
2023/10/12 16:10:07;;;;;;;2.13;1.00;;;;;;;20.00;85.95;100981.28;20824735;28;20056;-59
2023/10/12 16:20:10;;;;;;;19.60;2.15;;;;;;;20.06;86.26;100980.69;20782916;28;20115;-58
2023/10/12 16:30:16;;;;;;;2.28;0.90;;;;;;;20.09;86.50;100977.66;20785970;28;20044;-59
2023/10/12 16:40:18;;;;;;;3.72;1.35;;;;;;;20.05;89.43;100984.38;20771515;28;20053;-59
2023/10/12 16:50:20;;;;;;;3.63;1.42;;;;;;;20.02;89.24;100970.28;20776325;28;20060;-60
2023/10/12 17:00:24;;;;;;;3.42;1.23;;;;;;;20.02;90.99;100957.66;20802798;28;20568;-61
2023/10/12 17:10:28;;;;;;;2.38;1.10;;;;;;;20.10;91.29;100960.47;20783186;28;20045;-61
2023/10/12 17:20:31;;;;;;;3.28;1.30;;;;;;;20.20;92.52;100960.41;20752929;28;20046;-60
2023/10/12 17:30:33;;;;;;;4.32;1.50;;;;;;;20.20;93.33;100963.13;20778096;28;20046;-61
2023/10/12 17:40:49;;;;;;;2.17;1.00;;;;;;;20.16;91.87;100960.84;20769326;28;20107;-61
2023/10/12 17:50:52;;;;;;;2.25;1.00;;;;;;;20.09;90.85;100945.25;20785685;28;20056;-61
2023/10/12 18:00:54;;;;;;;3.50;1.88;;;;;;;20.05;89.04;100948.38;20802077;28;20056;-61
2023/10/12 18:11:03;;;;;;;2.53;0.90;;;;;;;19.99;89.29;100942.56;20808148;28;20052;-60
2023/10/12 18:21:05;;;;;;;1.63;1.02;;;;;;;19.95;88.88;100935.78;20796218;28;20501;-60
2023/10/12 18:31:10;;;;;;;1.65;0.77;;;;;;;19.93;88.81;100934.22;20807925;28;20056;-61
2023/10/12 18:41:17;;;;;;;1.58;0.70;;;;;;;19.92;88.58;100932.53;20809850;28;20046;-62
2023/10/12 18:51:21;;;;;;;2.13;0.93;;;;;;;19.90;88.78;100923.69;20795386;28;20056;-62
2023/10/12 19:01:23;;;;;;;1.70;0.70;;;;;;;19.88;88.72;100922.97;20812045;28;20052;-61
2023/10/12 19:11:26;;;;;;;2.40;0.90;;;;;;;19.82;88.78;100914.47;20815038;28;20779;-61
2023/10/12 19:21:28;;;;;;;1.83;0.70;;;;;;;19.88;88.67;100920.25;20797942;28;20069;-61
2023/10/12 19:31:31;;;;;;;2.40;1.25;;;;;;;19.83;88.51;100908.06;20793293;28;20052;-62
2023/10/12 19:41:33;;;;;;;3.22;1.27;;;;;;;19.72;88.60;100886.66;20803313;28;20045;-61
2023/10/12 19:51:35;;;;;;;1.30;0.90;;;;;;;19.69;89.06;100895.06;20789345;28;20493;-61
2023/10/12 20:01:46;;;;;;;1.63;0.93;;;;;;;19.69;89.15;100873.44;20786560;28;20049;-61
2023/10/12 20:11:48;;;;;;;3.05;1.30;;;;;;;19.70;89.30;100875.13;20829766;28;20056;-61
2023/10/12 20:21:49;;;;;;;2.83;1.20;;;;;;;19.68;89.30;100864.50;20825786;28;20057;-62
2023/10/12 20:31:51;;;;;;;1.85;1.23;;;;;;;19.61;89.25;100854.44;20872909;28;20500;-62
2023/10/12 20:41:53;;;;;;;2.30;1.10;;;;;;;19.59;89.57;100840.22;20872833;28;20068;-62
2023/10/12 20:51:55;;;;;;;3.55;1.67;;;;;;;19.55;89.31;100843.22;20872015;28;20106;-62
2023/10/12 21:02:12;;;;;;;3.58;1.65;;;;;;;19.54;89.14;100837.97;20871941;28;20049;-62
2023/10/12 21:12:14;;;;;;;2.90;1.63;;;;;;;19.50;89.19;100829.34;20848398;28;20571;-62
2023/10/12 21:22:22;;;;;;;2.78;1.52;;;;;;;19.47;89.42;100818.84;20795381;28;20060;-61
2023/10/12 21:32:26;;;;;;;3.05;2.40;;;;;;;19.45;89.12;100807.34;20804503;28;20633;-61
2023/10/12 21:42:29;;;;;;;3.10;2.00;;;;;;;19.44;89.39;100802.91;20803674;28;20037;-62
2023/10/12 21:52:32;;;;;;;2.72;1.88;;;;;;;19.42;89.17;100784.16;20881664;28;20052;-61
2023/10/12 22:02:34;;;;;;;4.88;2.42;;;;;;;19.36;89.29;100762.31;20884378;28;20550;-61
2023/10/12 22:12:36;;;;;;;3.80;2.50;;;;;;;19.34;89.55;100759.78;20845087;28;20072;-61
2023/10/12 22:22:39;;;;;;;3.83;2.70;;;;;;;19.34;89.60;100748.13;20800374;28;20057;-61
2023/10/12 22:32:42;;;;;;;3.08;2.20;;;;;;;19.33;89.55;100735.63;20780793;28;20057;-62
2023/10/12 22:42:44;;;;;;;2.42;2.03;;;;;;;19.32;89.88;100731.22;20799626;28;20648;-62
2023/10/12 22:52:46;;;;;;;3.40;2.55;;;;;;;19.33;89.80;100733.78;20798173;28;20049;-61
2023/10/12 23:02:48;;;;;;;3.13;2.10;;;;;;;19.35;89.91;100728.22;20796832;28;20045;-61
2023/10/12 23:12:53;;;;;;;2.28;1.95;;;;;;;19.35;90.25;100722.81;20847583;28;20041;-61
2023/10/12 23:22:54;;;;;;;3.87;2.67;;;;;;;19.36;90.37;100727.22;20878445;28;20049;-62
2023/10/12 23:32:59;;;;;;;3.05;2.33;;;;;;;19.35;90.52;100731.78;20877163;28;20044;-62
2023/10/12 23:43:03;;;;;;;4.00;2.90;;;;;;;19.35;91.01;100722.81;20876529;28;20559;-61
2023/10/12 23:53:08;;;;;;;3.50;3.13;;;;;;;19.36;91.13;100716.41;20876210;28;20053;-61
